Time,TemperatureF,DewpointF,PressureIn,WindDirection,WindDirectionDegrees,WindSpeedMPH,WindSpeedGustMPH,Humidity,HourlyPrecipIn,Conditions,Clouds,dailyrainin,SolarRadiationWatts/m^2,SoftwareType,DateUTC
2013-02-17 00:01:00,21.0,7.0,-100.00,SSW,192,2.0,5.0,55,0.00,,,0.00,0.000000,,2013-02-17 05:01:00,
2013-02-17 00:33:00,21.0,7.0,-100.00,SSW,192,2.0,5.0,55,0.00,,,0.00,0.000000,,2013-02-17 05:33:00,
2013-02-17 00:42:00,21.0,7.0,-100.00,SSW,192,2.0,5.0,55,0.00,,,0.00,0.000000,,2013-02-17 05:42:00,
2013-02-17 00:52:00,21.0,7.0,-100.00,SSW,192,2.0,5.0,55,0.00,,,0.00,0.000000,,2013-02-17 05:52:00,
2013-02-17 01:01:00,21.0,10.0,-100.00,NW,307,6.0,11.0,61,0.00,,,0.00,0.000000,,2013-02-17 06:01:00,
2013-02-17 01:21:00,21.0,10.0,-100.00,NW,307,6.0,11.0,61,0.00,,,0.00,0.000000,,2013-02-17 06:21:00,
2013-02-17 01:32:00,21.0,10.0,-100.00,NW,307,6.0,11.0,61,0.00,,,0.00,0.000000,,2013-02-17 06:32:00,
2013-02-17 01:42:00,21.0,10.0,-100.00,NW,307,6.0,11.0,61,0.00,,,0.00,0.000000,,2013-02-17 06:42:00,
2013-02-17 01:52:00,21.0,10.0,-100.00,NW,307,6.0,11.0,61,0.00,,,0.00,0.000000,,2013-02-17 06:52:00,
2013-02-17 02:01:00,19.0,8.0,-100.00,WNW,294,7.0,16.0,62,0.00,,,0.00,0.000000,,2013-02-17 07:01:00,
2013-02-17 02:32:00,19.0,8.0,-100.00,WNW,294,7.0,16.0,62,0.00,,,0.00,0.000000,,2013-02-17 07:32:00,
2013-02-17 02:42:00,19.0,8.0,-100.00,WNW,294,7.0,16.0,62,0.00,,,0.00,0.000000,,2013-02-17 07:42:00,
2013-02-17 02:52:00,19.0,8.0,-100.00,WNW,294,7.0,16.0,62,0.00,,,0.00,0.000000,,2013-02-17 07:52:00,
2013-02-17 03:01:00,17.0,2.0,-100.00,WNW,288,6.0,19.0,50,0.00,,,0.00,0.000000,,2013-02-17 08:01:00,
2013-02-17 03:32:00,17.0,2.0,-100.00,WNW,288,6.0,19.0,50,0.00,,,0.00,0.000000,,2013-02-17 08:32:00,
2013-02-17 03:42:00,17.0,2.0,-100.00,WNW,288,6.0,19.0,50,0.00,,,0.00,0.000000,,2013-02-17 08:42:00,
2013-02-17 03:52:00,17.0,2.0,-100.00,WNW,288,6.0,19.0,50,0.00,,,0.00,0.000000,,2013-02-17 08:52:00,
2013-02-17 04:01:00,16.0,-1.0,-100.00,WNW,294,4.0,17.0,46,0.00,,,-99.99,0.000000,,2013-02-17 09:01:00,
2013-02-17 04:21:00,16.0,-1.0,-100.00,WNW,294,4.0,17.0,46,0.00,,,-99.99,0.000000,,2013-02-17 09:21:00,
2013-02-17 04:32:00,16.0,-1.0,-100.00,WNW,294,4.0,17.0,46,0.00,,,-99.99,0.000000,,2013-02-17 09:32:00,
2013-02-17 04:42:00,16.0,-1.0,-100.00,WNW,294,4.0,17.0,46,0.00,,,-99.99,0.000000,,2013-02-17 09:42:00,
2013-02-17 04:52:00,16.0,-1.0,-100.00,WNW,294,4.0,17.0,46,0.00,,,-99.99,0.000000,,2013-02-17 09:52:00,
2013-02-17 05:01:00,15.0,2.0,-100.00,WNW,300,8.0,20.0,55,0.00,,,0.00,0.000000,,2013-02-17 10:01:00,
2013-02-17 05:32:00,15.0,2.0,-100.00,WNW,300,8.0,20.0,55,0.00,,,0.00,0.000000,,2013-02-17 10:32:00,
2013-02-17 05:42:00,15.0,2.0,-100.00,WNW,300,8.0,20.0,55,0.00,,,0.00,0.000000,,2013-02-17 10:42:00,
2013-02-17 05:52:00,15.0,2.0,-100.00,WNW,300,8.0,20.0,55,0.00,,,0.00,0.000000,,2013-02-17 10:52:00,
2013-02-17 06:01:00,15.0,-2.0,-100.00,WNW,298,8.0,19.0,46,0.00,,,0.00,0.000000,,2013-02-17 11:01:00,
2013-02-17 06:32:00,15.0,-2.0,-100.00,WNW,298,8.0,19.0,46,0.00,,,0.00,0.000000,,2013-02-17 11:32:00,
2013-02-17 06:42:00,15.0,-2.0,-100.00,WNW,298,8.0,19.0,46,0.00,,,0.00,0.000000,,2013-02-17 11:42:00,
2013-02-17 06:53:00,15.0,-2.0,-100.00,WNW,298,8.0,19.0,46,0.00,,,0.00,0.000000,,2013-02-17 11:53:00,
2013-02-17 07:01:00,14.0,-3.0,-100.00,NW,304,6.0,17.0,45,0.00,,,0.00,0.000000,,2013-02-17 12:01:00,
2013-02-17 07:32:00,14.0,-3.0,-100.00,NW,304,6.0,17.0,45,0.00,,,0.00,0.000000,,2013-02-17 12:32:00,
2013-02-17 07:42:00,14.0,-3.0,-100.00,NW,304,6.0,17.0,45,0.00,,,0.00,0.000000,,2013-02-17 12:42:00,
2013-02-17 07:52:00,14.0,-3.0,-100.00,NW,304,6.0,17.0,45,0.00,,,0.00,0.000000,,2013-02-17 12:52:00,
2013-02-17 08:01:00,13.0,1.0,-100.00,NW,313,8.0,15.0,59,0.00,,,-99.99,0.000000,,2013-02-17 13:01:00,
2013-02-17 08:32:00,13.0,1.0,-100.00,NW,313,8.0,15.0,59,0.00,,,-99.99,0.000000,,2013-02-17 13:32:00,
2013-02-17 08:42:00,13.0,1.0,-100.00,NW,313,8.0,15.0,59,0.00,,,-99.99,0.000000,,2013-02-17 13:42:00,
2013-02-17 08:52:00,13.0,1.0,-100.00,NW,313,8.0,15.0,59,0.00,,,-99.99,0.000000,,2013-02-17 13:52:00,
2013-02-17 09:01:00,13.0,-4.0,-100.00,NW,312,5.0,15.0,45,0.00,,,0.00,0.000000,,2013-02-17 14:01:00,
2013-02-17 09:32:00,13.0,-4.0,-100.00,NW,312,5.0,15.0,45,0.00,,,0.00,0.000000,,2013-02-17 14:32:00,
2013-02-17 09:42:00,13.0,-4.0,-100.00,NW,312,5.0,15.0,45,0.00,,,0.00,0.000000,,2013-02-17 14:42:00,
2013-02-17 09:53:00,13.0,-4.0,-100.00,NW,312,5.0,15.0,45,0.00,,,0.00,0.000000,,2013-02-17 14:53:00,
2013-02-17 10:01:00,14.0,-5.0,-100.00,NNW,338,3.0,17.0,41,0.00,,,0.00,0.000000,,2013-02-17 15:01:00,
2013-02-17 10:22:00,14.0,-5.0,-100.00,NNW,338,3.0,17.0,41,0.00,,,0.00,0.000000,,2013-02-17 15:22:00,
2013-02-17 10:32:00,14.0,-5.0,-100.00,NNW,338,3.0,17.0,41,0.00,,,0.00,0.000000,,2013-02-17 15:32:00,
2013-02-17 10:42:00,14.0,-5.0,-100.00,NNW,338,3.0,17.0,41,0.00,,,0.00,0.000000,,2013-02-17 15:42:00,
2013-02-17 10:52:00,14.0,-5.0,-100.00,NNW,338,3.0,17.0,41,0.00,,,0.00,0.000000,,2013-02-17 15:52:00,
2013-02-17 11:01:00,17.0,-4.0,-100.00,North,356,4.0,17.0,38,0.00,,,0.00,0.000000,,2013-02-17 16:01:00,
2013-02-17 11:32:00,17.0,-4.0,-100.00,North,356,4.0,17.0,38,0.00,,,0.00,0.000000,,2013-02-17 16:32:00,
2013-02-17 11:42:00,17.0,-4.0,-100.00,North,356,4.0,17.0,38,0.00,,,0.00,0.000000,,2013-02-17 16:42:00,
2013-02-17 11:52:00,17.0,-4.0,-100.00,North,356,4.0,17.0,38,0.00,,,0.00,0.000000,,2013-02-17 16:52:00,
2013-02-17 12:01:00,21.0,-2.0,-100.00,WNW,292,7.0,21.0,36,0.00,,,0.00,0.000000,,2013-02-17 17:01:00,
2013-02-17 12:32:00,21.0,-2.0,-100.00,WNW,292,7.0,21.0,36,0.00,,,0.00,0.000000,,2013-02-17 17:32:00,
2013-02-17 12:42:00,21.0,-2.0,-100.00,WNW,292,7.0,21.0,36,0.00,,,0.00,0.000000,,2013-02-17 17:42:00,
2013-02-17 12:52:00,21.0,-2.0,-100.00,WNW,292,7.0,21.0,36,0.00,,,0.00,0.000000,,2013-02-17 17:52:00,
2013-02-17 13:01:00,23.0,-2.0,-100.00,WNW,283,9.0,19.0,32,0.00,,,0.00,0.000000,,2013-02-17 18:01:00,
2013-02-17 13:33:00,23.0,-2.0,-100.00,WNW,283,9.0,19.0,32,0.00,,,0.00,0.000000,,2013-02-17 18:33:00,
2013-02-17 13:42:00,23.0,-2.0,-100.00,WNW,283,9.0,19.0,32,0.00,,,0.00,0.000000,,2013-02-17 18:42:00,
2013-02-17 13:52:00,23.0,-2.0,-100.00,WNW,283,9.0,19.0,32,0.00,,,0.00,0.000000,,2013-02-17 18:52:00,
2013-02-17 14:01:00,24.0,-3.0,-100.00,NW,314,7.0,22.0,30,0.00,,,0.00,0.000000,,2013-02-17 19:01:00,
2013-02-17 14:32:00,24.0,-3.0,-100.00,NW,314,7.0,22.0,30,0.00,,,0.00,0.000000,,2013-02-17 19:32:00,
2013-02-17 14:42:00,24.0,-3.0,-100.00,NW,314,7.0,22.0,30,0.00,,,0.00,0.000000,,2013-02-17 19:42:00,
2013-02-17 14:52:00,24.0,-3.0,-100.00,NW,314,7.0,22.0,30,0.00,,,0.00,0.000000,,2013-02-17 19:52:00,
2013-02-17 15:01:00,23.0,-4.0,-100.00,NW,326,7.0,20.0,29,0.00,,,0.00,0.000000,,2013-02-17 20:01:00,
2013-02-17 15:32:00,23.0,-4.0,-100.00,NW,326,7.0,20.0,29,0.00,,,0.00,0.000000,,2013-02-17 20:32:00,
2013-02-17 15:43:00,23.0,-4.0,-100.00,NW,326,7.0,20.0,29,0.00,,,0.00,0.000000,,2013-02-17 20:43:00,
2013-02-17 15:52:00,23.0,-4.0,-100.00,NW,326,7.0,20.0,29,0.00,,,0.00,0.000000,,2013-02-17 20:52:00,
2013-02-17 16:01:00,22.0,-3.0,-100.00,NW,322,9.0,21.0,33,0.00,,,0.00,0.000000,,2013-02-17 21:01:00,
2013-02-17 16:32:00,22.0,-3.0,-100.00,NW,322,9.0,21.0,33,0.00,,,0.00,0.000000,,2013-02-17 21:32:00,
2013-02-17 16:42:00,22.0,-3.0,-100.00,NW,322,9.0,21.0,33,0.00,,,0.00,0.000000,,2013-02-17 21:42:00,
2013-02-17 16:53:00,22.0,-3.0,-100.00,NW,322,9.0,21.0,33,0.00,,,0.00,0.000000,,2013-02-17 21:53:00,
2013-02-17 17:01:00,20.0,-5.0,-100.00,NW,313,7.0,18.0,32,0.00,,,0.00,0.000000,,2013-02-17 22:01:00,
2013-02-17 17:32:00,20.0,-5.0,-100.00,NW,313,7.0,18.0,32,0.00,,,0.00,0.000000,,2013-02-17 22:32:00,
2013-02-17 17:42:00,20.0,-5.0,-100.00,NW,313,7.0,18.0,32,0.00,,,0.00,0.000000,,2013-02-17 22:42:00,
2013-02-17 17:52:00,20.0,-5.0,-100.00,NW,313,7.0,18.0,32,0.00,,,0.00,0.000000,,2013-02-17 22:52:00,
2013-02-17 18:01:00,19.0,-3.0,-100.00,NNW,335,6.0,17.0,37,0.00,,,0.00,0.000000,,2013-02-17 23:01:00,
2013-02-17 18:32:00,19.0,-3.0,-100.00,NNW,335,6.0,17.0,37,0.00,,,0.00,0.000000,,2013-02-17 23:32:00,
2013-02-17 18:42:00,19.0,-3.0,-100.00,NNW,335,6.0,17.0,37,0.00,,,0.00,0.000000,,2013-02-17 23:42:00,
2013-02-17 18:52:00,19.0,-3.0,-100.00,NNW,335,6.0,17.0,37,0.00,,,0.00,0.000000,,2013-02-17 23:52:00,
2013-02-17 19:01:00,19.0,-1.0,-100.00,NW,310,5.0,11.0,40,0.00,,,0.00,0.000000,,2013-02-18 00:01:00,
2013-02-17 19:32:00,19.0,-1.0,-100.00,NW,310,5.0,11.0,40,0.00,,,0.00,0.000000,,2013-02-18 00:32:00,
2013-02-17 19:42:00,19.0,-1.0,-100.00,NW,310,5.0,11.0,40,0.00,,,0.00,0.000000,,2013-02-18 00:42:00,
2013-02-17 19:52:00,19.0,-1.0,-100.00,NW,310,5.0,11.0,40,0.00,,,0.00,0.000000,,2013-02-18 00:52:00,
2013-02-17 20:01:00,18.0,-2.0,-100.00,NW,305,6.0,16.0,41,0.00,,,0.00,0.000000,,2013-02-18 01:01:00,
2013-02-17 20:21:00,18.0,-2.0,-100.00,NW,305,6.0,16.0,41,0.00,,,0.00,0.000000,,2013-02-18 01:21:00,
2013-02-17 20:32:00,18.0,-2.0,-100.00,NW,305,6.0,16.0,41,0.00,,,0.00,0.000000,,2013-02-18 01:32:00,
2013-02-17 20:42:00,18.0,-2.0,-100.00,NW,305,6.0,16.0,41,0.00,,,0.00,0.000000,,2013-02-18 01:42:00,
2013-02-17 20:52:00,18.0,-2.0,-100.00,NW,305,6.0,16.0,41,0.00,,,0.00,0.000000,,2013-02-18 01:52:00,
2013-02-17 21:01:00,18.0,-1.0,-100.00,WNW,294,5.0,14.0,42,0.00,,,0.00,0.000000,,2013-02-18 02:01:00,
2013-02-17 21:22:00,18.0,-1.0,-100.00,WNW,294,5.0,14.0,42,0.00,,,0.00,0.000000,,2013-02-18 02:22:00,
2013-02-17 21:32:00,18.0,-1.0,-100.00,WNW,294,5.0,14.0,42,0.00,,,0.00,0.000000,,2013-02-18 02:32:00,
2013-02-17 21:42:00,18.0,-1.0,-100.00,WNW,294,5.0,14.0,42,0.00,,,0.00,0.000000,,2013-02-18 02:42:00,
2013-02-17 21:52:00,18.0,-1.0,-100.00,WNW,294,5.0,14.0,42,0.00,,,0.00,0.000000,,2013-02-18 02:52:00,
2013-02-17 22:01:00,18.0,-1.0,-100.00,WNW,286,5.0,12.0,42,0.00,,,0.00,0.000000,,2013-02-18 03:01:00,
2013-02-17 22:32:00,18.0,-1.0,-100.00,WNW,286,5.0,12.0,42,0.00,,,0.00,0.000000,,2013-02-18 03:32:00,
2013-02-17 22:42:00,18.0,-1.0,-100.00,WNW,286,5.0,12.0,42,0.00,,,0.00,0.000000,,2013-02-18 03:42:00,
2013-02-17 22:52:00,18.0,-1.0,-100.00,WNW,286,5.0,12.0,42,0.00,,,0.00,0.000000,,2013-02-18 03:52:00,
2013-02-17 23:01:00,18.0,-1.0,-100.00,NW,322,6.0,16.0,43,0.00,,,0.00,0.000000,,2013-02-18 04:01:00,
2013-02-17 23:22:00,18.0,-1.0,-100.00,NW,322,6.0,16.0,43,0.00,,,0.00,0.000000,,2013-02-18 04:22:00,
2013-02-17 23:32:00,18.0,-1.0,-100.00,NW,322,6.0,16.0,43,0.00,,,0.00,0.000000,,2013-02-18 04:32:00,
2013-02-17 23:42:00,18.0,-1.0,-100.00,NW,322,6.0,16.0,43,0.00,,,0.00,0.000000,,2013-02-18 04:42:00,
2013-02-17 23:52:00,18.0,-1.0,-100.00,NW,322,6.0,16.0,43,0.00,,,0.00,0.000000,,2013-02-18 04:52:00,